sensor_id;sensor_type;location;lat;lon;timestamp;pressure;altitude;pressure_sealevel;temperature;humidity
80624;BME280;70269;44.768;9.600;2023-10-08T00:01:15;98364.69;;;15.11;88.31
80624;BME280;70269;44.768;9.600;2023-10-08T00:03:48;98357.94;;;15.13;88.03
80624;BME280;70269;44.768;9.600;2023-10-08T00:06:18;98346.22;;;15.13;87.33
80624;BME280;70269;44.768;9.600;2023-10-08T00:08:47;98352.00;;;14.98;88.19
80624;BME280;70269;44.768;9.600;2023-10-08T00:11:14;98351.16;;;14.97;87.96
80624;BME280;70269;44.768;9.600;2023-10-08T00:13:42;98357.47;;;14.91;88.15
80624;BME280;70269;44.768;9.600;2023-10-08T00:16:08;98353.66;;;14.99;88.27
80624;BME280;70269;44.768;9.600;2023-10-08T00:18:35;98353.72;;;14.92;88.12
80624;BME280;70269;44.768;9.600;2023-10-08T00:21:01;98354.22;;;14.76;88.54
80624;BME280;70269;44.768;9.600;2023-10-08T00:23:36;98348.41;;;14.66;89.27
80624;BME280;70269;44.768;9.600;2023-10-08T00:26:10;98347.72;;;14.77;88.97
80624;BME280;70269;44.768;9.600;2023-10-08T00:28:36;98345.75;;;14.91;87.81
80624;BME280;70269;44.768;9.600;2023-10-08T00:31:02;98352.16;;;14.72;88.08
80624;BME280;70269;44.768;9.600;2023-10-08T00:33:32;98356.72;;;14.78;87.89
80624;BME280;70269;44.768;9.600;2023-10-08T00:35:58;98358.91;;;14.63;88.62
80624;BME280;70269;44.768;9.600;2023-10-08T00:38:24;98351.03;;;14.48;89.54
80624;BME280;70269;44.768;9.600;2023-10-08T00:40:57;98355.56;;;14.61;89.42
80624;BME280;70269;44.768;9.600;2023-10-08T00:43:32;98348.84;;;14.63;88.65
80624;BME280;70269;44.768;9.600;2023-10-08T00:46:01;98345.13;;;14.51;88.89
80624;BME280;70269;44.768;9.600;2023-10-08T00:48:26;98334.88;;;14.53;89.20
80624;BME280;70269;44.768;9.600;2023-10-08T00:50:56;98343.19;;;14.65;88.64
80624;BME280;70269;44.768;9.600;2023-10-08T00:53:37;98343.44;;;14.56;88.44
80624;BME280;70269;44.768;9.600;2023-10-08T00:56:06;98335.28;;;14.56;88.10
80624;BME280;70269;44.768;9.600;2023-10-08T00:58:42;98326.34;;;14.49;88.94
80624;BME280;70269;44.768;9.600;2023-10-08T01:01:11;98332.16;;;14.53;88.80
80624;BME280;70269;44.768;9.600;2023-10-08T01:03:37;98322.53;;;14.50;88.53
80624;BME280;70269;44.768;9.600;2023-10-08T01:06:12;98325.53;;;14.42;88.88
80624;BME280;70269;44.768;9.600;2023-10-08T01:08:41;98321.16;;;14.28;89.78
80624;BME280;70269;44.768;9.600;2023-10-08T01:11:21;98324.34;;;14.25;90.65
80624;BME280;70269;44.768;9.600;2023-10-08T01:14:08;98325.94;;;14.46;89.83
80624;BME280;70269;44.768;9.600;2023-10-08T01:16:33;98322.53;;;14.50;89.50
80624;BME280;70269;44.768;9.600;2023-10-08T01:19:01;98329.63;;;14.58;88.45
80624;BME280;70269;44.768;9.600;2023-10-08T01:21:31;98325.03;;;14.58;87.75
80624;BME280;70269;44.768;9.600;2023-10-08T01:24:03;98328.63;;;14.52;88.15
80624;BME280;70269;44.768;9.600;2023-10-08T01:26:34;98328.03;;;14.44;88.71
80624;BME280;70269;44.768;9.600;2023-10-08T01:29:04;98326.78;;;14.40;88.78
80624;BME280;70269;44.768;9.600;2023-10-08T01:31:34;98322.19;;;14.40;88.35
80624;BME280;70269;44.768;9.600;2023-10-08T01:34:00;98322.19;;;14.40;88.23
80624;BME280;70269;44.768;9.600;2023-10-08T01:36:26;98314.03;;;14.40;88.68
80624;BME280;70269;44.768;9.600;2023-10-08T01:38:52;98319.69;;;14.39;88.73
80624;BME280;70269;44.768;9.600;2023-10-08T01:41:21;98310.28;;;14.41;88.17
80624;BME280;70269;44.768;9.600;2023-10-08T01:43:56;98317.38;;;14.42;87.62
80624;BME280;70269;44.768;9.600;2023-10-08T01:46:25;98315.09;;;14.39;87.62
80624;BME280;70269;44.768;9.600;2023-10-08T01:48:51;98307.56;;;14.35;88.08
80624;BME280;70269;44.768;9.600;2023-10-08T01:51:21;98315.91;;;14.33;88.67
80624;BME280;70269;44.768;9.600;2023-10-08T01:54:01;98314.69;;;14.29;88.98
80624;BME280;70269;44.768;9.600;2023-10-08T01:56:28;98301.28;;;14.34;89.26
80624;BME280;70269;44.768;9.600;2023-10-08T01:58:55;98297.91;;;14.45;88.45
80624;BME280;70269;44.768;9.600;2023-10-08T02:01:21;98297.53;;;14.42;87.80
80624;BME280;70269;44.768;9.600;2023-10-08T02:03:47;98291.66;;;14.38;88.47
80624;BME280;70269;44.768;9.600;2023-10-08T02:06:13;98290.41;;;14.34;88.58
80624;BME280;70269;44.768;9.600;2023-10-08T02:08:39;98291.47;;;14.40;88.94
80624;BME280;70269;44.768;9.600;2023-10-08T02:11:05;98290.19;;;14.42;88.62
80624;BME280;70269;44.768;9.600;2023-10-08T02:13:32;98287.28;;;14.44;88.44
80624;BME280;70269;44.768;9.600;2023-10-08T02:16:00;98286.84;;;14.40;88.28
80624;BME280;70269;44.768;9.600;2023-10-08T02:18:25;98281.63;;;14.32;88.74
80624;BME280;70269;44.768;9.600;2023-10-08T02:20:51;98284.97;;;14.34;88.12
80624;BME280;70269;44.768;9.600;2023-10-08T02:23:18;98283.75;;;14.30;87.54
80624;BME280;70269;44.768;9.600;2023-10-08T02:25:44;98278.38;;;14.17;88.02
80624;BME280;70269;44.768;9.600;2023-10-08T02:28:10;98278.16;;;14.18;88.03
80624;BME280;70269;44.768;9.600;2023-10-08T02:30:41;98270.22;;;14.17;88.01
80624;BME280;70269;44.768;9.600;2023-10-08T02:33:07;98272.50;;;14.20;87.45
80624;BME280;70269;44.768;9.600;2023-10-08T02:35:44;98272.31;;;14.15;87.55
80624;BME280;70269;44.768;9.600;2023-10-08T02:38:14;98283.03;;;13.97;88.35
80624;BME280;70269;44.768;9.600;2023-10-08T02:40:42;98286.81;;;13.96;89.25
80624;BME280;70269;44.768;9.600;2023-10-08T02:43:15;98289.34;;;13.91;89.34
80624;BME280;70269;44.768;9.600;2023-10-08T02:45:42;98283.50;;;13.87;89.46
80624;BME280;70269;44.768;9.600;2023-10-08T02:48:08;98281.38;;;13.96;89.10
80624;BME280;70269;44.768;9.600;2023-10-08T02:50:39;98282.63;;;14.00;89.16
80624;BME280;70269;44.768;9.600;2023-10-08T02:53:06;98270.50;;;14.02;88.68
80624;BME280;70269;44.768;9.600;2023-10-08T02:55:43;98267.94;;;14.14;87.61
80624;BME280;70269;44.768;9.600;2023-10-08T02:58:13;98275.69;;;14.10;87.74
80624;BME280;70269;44.768;9.600;2023-10-08T03:00:46;98265.84;;;14.16;87.46
80624;BME280;70269;44.768;9.600;2023-10-08T03:03:13;98270.91;;;14.06;87.76
80624;BME280;70269;44.768;9.600;2023-10-08T03:05:46;98272.13;;;14.10;87.81
80624;BME280;70269;44.768;9.600;2023-10-08T03:08:14;98265.22;;;14.14;87.61
80624;BME280;70269;44.768;9.600;2023-10-08T03:10:44;98265.22;;;14.14;87.52
80624;BME280;70269;44.768;9.600;2023-10-08T03:13:10;98269.38;;;14.23;87.13
80624;BME280;70269;44.768;9.600;2023-10-08T03:15:40;98267.69;;;14.22;86.55
80624;BME280;70269;44.768;9.600;2023-10-08T03:18:15;98261.25;;;14.16;86.80
80624;BME280;70269;44.768;9.600;2023-10-08T03:20:42;98260.19;;;14.17;86.96
80624;BME280;70269;44.768;9.600;2023-10-08T03:23:10;98257.69;;;14.16;86.96
80624;BME280;70269;44.768;9.600;2023-10-08T03:25:55;98261.84;;;14.25;86.41
80624;BME280;70269;44.768;9.600;2023-10-08T03:28:44;98258.03;;;14.26;86.09
80624;BME280;70269;44.768;9.600;2023-10-08T03:31:10;98257.25;;;14.26;86.13
80624;BME280;70269;44.768;9.600;2023-10-08T03:33:43;98259.09;;;14.32;85.49
80624;BME280;70269;44.768;9.600;2023-10-08T03:36:14;98266.81;;;14.28;85.64
80624;BME280;70269;44.768;9.600;2023-10-08T03:38:47;98268.31;;;14.24;84.72
80624;BME280;70269;44.768;9.600;2023-10-08T03:41:23;98267.94;;;14.14;84.96
80624;BME280;70269;44.768;9.600;2023-10-08T03:43:56;98266.50;;;14.11;85.25
80624;BME280;70269;44.768;9.600;2023-10-08T03:46:31;98267.53;;;14.10;85.08
80624;BME280;70269;44.768;9.600;2023-10-08T03:48:58;98266.28;;;14.13;84.63
80624;BME280;70269;44.768;9.600;2023-10-08T03:51:31;98264.16;;;14.15;84.53
80624;BME280;70269;44.768;9.600;2023-10-08T03:54:08;98261.47;;;14.08;84.33
80624;BME280;70269;44.768;9.600;2023-10-08T03:56:40;98264.66;;;13.99;84.45
80624;BME280;70269;44.768;9.600;2023-10-08T03:59:14;98268.44;;;13.91;84.92
80624;BME280;70269;44.768;9.600;2023-10-08T04:01:46;98268.03;;;13.94;84.82
80624;BME280;70269;44.768;9.600;2023-10-08T04:04:15;98263.00;;;13.98;84.22
80624;BME280;70269;44.768;9.600;2023-10-08T04:06:42;98278.66;;;13.96;83.95
80624;BME280;70269;44.768;9.600;2023-10-08T04:09:15;98265.31;;;13.94;83.46
80624;BME280;70269;44.768;9.600;2023-10-08T04:11:50;98264.91;;;13.91;82.84
80624;BME280;70269;44.768;9.600;2023-10-08T04:14:20;98257.16;;;13.94;82.39
80624;BME280;70269;44.768;9.600;2023-10-08T04:16:46;98273.50;;;13.88;82.70
80624;BME280;70269;44.768;9.600;2023-10-08T04:19:17;98263.25;;;13.76;82.74
80624;BME280;70269;44.768;9.600;2023-10-08T04:21:44;98258.47;;;13.78;82.62
80624;BME280;70269;44.768;9.600;2023-10-08T04:24:11;98263.84;;;13.92;82.40
80624;BME280;70269;44.768;9.600;2023-10-08T04:26:40;98260.50;;;13.90;82.46
80624;BME280;70269;44.768;9.600;2023-10-08T04:29:06;98260.31;;;13.91;82.65
80624;BME280;70269;44.768;9.600;2023-10-08T04:31:33;98248.19;;;13.94;82.51
80624;BME280;70269;44.768;9.600;2023-10-08T04:34:04;98254.63;;;13.99;82.70
80624;BME280;70269;44.768;9.600;2023-10-08T04:36:43;98250.44;;;13.97;82.20
80624;BME280;70269;44.768;9.600;2023-10-08T04:39:10;98248.41;;;13.92;82.19
80624;BME280;70269;44.768;9.600;2023-10-08T04:41:40;98252.59;;;13.88;82.76
80624;BME280;70269;44.768;9.600;2023-10-08T04:44:09;98249.66;;;13.90;82.27
80624;BME280;70269;44.768;9.600;2023-10-08T04:46:43;98242.09;;;13.98;81.77
80624;BME280;70269;44.768;9.600;2023-10-08T04:49:13;98247.13;;;13.95;81.18
80624;BME280;70269;44.768;9.600;2023-10-08T04:52:07;98248.41;;;13.86;81.36
80624;BME280;70269;44.768;9.600;2023-10-08T04:54:44;98248.44;;;13.79;81.20
80624;BME280;70269;44.768;9.600;2023-10-08T04:57:33;98240.50;;;13.77;80.81
80624;BME280;70269;44.768;9.600;2023-10-08T04:59:59;98245.72;;;13.79;80.77
80624;BME280;70269;44.768;9.600;2023-10-08T05:02:27;98248.88;;;13.76;81.02
80624;BME280;70269;44.768;9.600;2023-10-08T05:04:59;98247.78;;;13.84;80.68
80624;BME280;70269;44.768;9.600;2023-10-08T05:07:37;98245.31;;;13.82;80.51
80624;BME280;70269;44.768;9.600;2023-10-08T05:10:25;98232.53;;;13.83;80.27
80624;BME280;70269;44.768;9.600;2023-10-08T05:12:55;98247.59;;;13.85;80.15
80624;BME280;70269;44.768;9.600;2023-10-08T05:15:27;98243.22;;;13.77;80.26
80624;BME280;70269;44.768;9.600;2023-10-08T05:17:59;98248.91;;;13.69;80.19
80624;BME280;70269;44.768;9.600;2023-10-08T05:20:39;98244.69;;;13.73;80.25
80624;BME280;70269;44.768;9.600;2023-10-08T05:23:14;98240.50;;;13.77;79.97
80624;BME280;70269;44.768;9.600;2023-10-08T05:26:06;98248.81;;;13.83;79.65
80624;BME280;70269;44.768;9.600;2023-10-08T05:28:33;98244.47;;;13.82;79.84
80624;BME280;70269;44.768;9.600;2023-10-08T05:31:08;98245.03;;;13.90;79.34
80624;BME280;70269;44.768;9.600;2023-10-08T05:33:57;98251.34;;;13.84;79.50
80624;BME280;70269;44.768;9.600;2023-10-08T05:36:41;98240.06;;;13.87;78.96
80624;BME280;70269;44.768;9.600;2023-10-08T05:39:36;98241.50;;;13.90;78.84
80624;BME280;70269;44.768;9.600;2023-10-08T05:42:05;98246.72;;;13.91;78.84
80624;BME280;70269;44.768;9.600;2023-10-08T05:44:46;98246.34;;;13.88;78.40
80624;BME280;70269;44.768;9.600;2023-10-08T05:47:16;98252.00;;;13.80;78.28
80624;BME280;70269;44.768;9.600;2023-10-08T05:50:03;98253.63;;;13.87;77.85
80624;BME280;70269;44.768;9.600;2023-10-08T05:52:46;98252.19;;;13.85;77.51
80624;BME280;70269;44.768;9.600;2023-10-08T05:55:28;98251.13;;;13.86;77.59
80624;BME280;70269;44.768;9.600;2023-10-08T05:58:04;98254.00;;;13.97;76.93
80624;BME280;70269;44.768;9.600;2023-10-08T06:00:50;98260.63;;;14.08;76.90
80624;BME280;70269;44.768;9.600;2023-10-08T06:03:20;98257.50;;;14.11;76.80
80624;BME280;70269;44.768;9.600;2023-10-08T06:06:02;98259.56;;;14.15;76.85
80624;BME280;70269;44.768;9.600;2023-10-08T06:08:40;98271.91;;;14.18;76.68
80624;BME280;70269;44.768;9.600;2023-10-08T06:11:25;98270.84;;;14.19;76.66
80624;BME280;70269;44.768;9.600;2023-10-08T06:14:23;98266.22;;;14.19;76.45
80624;BME280;70269;44.768;9.600;2023-10-08T06:17:14;98270.56;;;14.34;75.99
80624;BME280;70269;44.768;9.600;2023-10-08T06:19:52;98276.66;;;14.29;76.22
80624;BME280;70269;44.768;9.600;2023-10-08T06:22:18;98278.72;;;14.34;76.09
80624;BME280;70269;44.768;9.600;2023-10-08T06:24:44;98277.50;;;14.68;74.66
80624;BME280;70269;44.768;9.600;2023-10-08T06:27:10;98277.66;;;15.04;72.48
80624;BME280;70269;44.768;9.600;2023-10-08T06:29:42;98279.59;;;15.22;72.07
80624;BME280;70269;44.768;9.600;2023-10-08T06:32:10;98273.88;;;15.30;71.99
80624;BME280;70269;44.768;9.600;2023-10-08T06:34:37;98279.28;;;15.36;71.16
80624;BME280;70269;44.768;9.600;2023-10-08T06:37:05;98274.13;;;15.47;71.15
80624;BME280;70269;44.768;9.600;2023-10-08T06:39:31;98273.28;;;15.53;70.80
80624;BME280;70269;44.768;9.600;2023-10-08T06:42:15;98277.53;;;15.67;70.39
80624;BME280;70269;44.768;9.600;2023-10-08T06:44:42;98276.72;;;15.85;69.59
80624;BME280;70269;44.768;9.600;2023-10-08T06:47:12;98279.59;;;15.90;69.46
80624;BME280;70269;44.768;9.600;2023-10-08T06:49:42;98287.81;;;15.83;69.02
80624;BME280;70269;44.768;9.600;2023-10-08T06:52:08;98283.28;;;15.95;68.63
80624;BME280;70269;44.768;9.600;2023-10-08T06:54:39;98286.97;;;16.19;68.44
80624;BME280;70269;44.768;9.600;2023-10-08T06:57:04;98292.22;;;16.21;67.46
80624;BME280;70269;44.768;9.600;2023-10-08T06:59:31;98281.06;;;16.40;66.97
80624;BME280;70269;44.768;9.600;2023-10-08T07:01:57;98294.47;;;16.60;66.32
80624;BME280;70269;44.768;9.600;2023-10-08T07:04:24;98282.16;;;16.69;65.55
80624;BME280;70269;44.768;9.600;2023-10-08T07:06:51;98288.97;;;16.90;64.94
80624;BME280;70269;44.768;9.600;2023-10-08T07:09:17;98288.53;;;17.05;64.54
80624;BME280;70269;44.768;9.600;2023-10-08T07:11:52;98278.72;;;17.15;64.82
80624;BME280;70269;44.768;9.600;2023-10-08T07:14:27;98287.88;;;17.32;64.13
80624;BME280;70269;44.768;9.600;2023-10-08T07:16:54;98277.41;;;17.41;63.80
80624;BME280;70269;44.768;9.600;2023-10-08T07:19:27;98282.34;;;17.62;63.83
80624;BME280;70269;44.768;9.600;2023-10-08T07:22:03;98283.28;;;17.79;63.22
80624;BME280;70269;44.768;9.600;2023-10-08T07:24:34;98267.91;;;17.90;62.66
80624;BME280;70269;44.768;9.600;2023-10-08T07:27:02;98280.38;;;18.09;62.64
80624;BME280;70269;44.768;9.600;2023-10-08T07:29:35;98275.69;;;18.22;62.20
80624;BME280;70269;44.768;9.600;2023-10-08T07:32:01;98275.09;;;18.31;61.62
80624;BME280;70269;44.768;9.600;2023-10-08T07:34:38;98284.28;;;18.53;60.94
80624;BME280;70269;44.768;9.600;2023-10-08T07:37:04;98272.75;;;18.63;61.17
80624;BME280;70269;44.768;9.600;2023-10-08T07:39:31;98284.50;;;18.92;60.23
80624;BME280;70269;44.768;9.600;2023-10-08T07:41:58;98288.75;;;19.16;58.93
80624;BME280;70269;44.768;9.600;2023-10-08T07:44:25;98286.69;;;19.40;59.13
80624;BME280;70269;44.768;9.600;2023-10-08T07:46:53;98288.28;;;19.53;58.33
80624;BME280;70269;44.768;9.600;2023-10-08T07:49:23;98289.38;;;19.68;57.56
80624;BME280;70269;44.768;9.600;2023-10-08T07:51:49;98284.09;;;19.84;56.66
80624;BME280;70269;44.768;9.600;2023-10-08T07:54:20;98285.59;;;19.91;55.99
80624;BME280;70269;44.768;9.600;2023-10-08T07:56:47;98278.13;;;20.08;55.96
80624;BME280;70269;44.768;9.600;2023-10-08T07:59:14;98281.59;;;20.20;56.23
80624;BME280;70269;44.768;9.600;2023-10-08T08:01:42;98269.81;;;20.42;54.99
80624;BME280;70269;44.768;9.600;2023-10-08T08:04:11;98270.91;;;20.68;54.75
80624;BME280;70269;44.768;9.600;2023-10-08T08:06:48;98272.16;;;20.82;54.13
80624;BME280;70269;44.768;9.600;2023-10-08T08:09:16;98266.44;;;20.83;54.25
80624;BME280;70269;44.768;9.600;2023-10-08T08:11:46;98272.28;;;20.92;54.21
80624;BME280;70269;44.768;9.600;2023-10-08T08:14:13;98268.59;;;21.08;53.93
80624;BME280;70269;44.768;9.600;2023-10-08T08:16:45;98271.75;;;21.17;53.69
80624;BME280;70269;44.768;9.600;2023-10-08T08:19:14;98277.28;;;21.22;53.56
80624;BME280;70269;44.768;9.600;2023-10-08T08:21:42;98274.09;;;21.35;52.98
80624;BME280;70269;44.768;9.600;2023-10-08T08:24:13;98270.00;;;21.43;53.48
80624;BME280;70269;44.768;9.600;2023-10-08T08:26:50;98272.03;;;21.52;53.31
80624;BME280;70269;44.768;9.600;2023-10-08T08:29:36;98273.56;;;21.80;52.35
80624;BME280;70269;44.768;9.600;2023-10-08T08:32:12;98268.84;;;22.12;51.58
80624;BME280;70269;44.768;9.600;2023-10-08T08:34:44;98268.94;;;22.33;50.01
80624;BME280;70269;44.768;9.600;2023-10-08T08:37:12;98274.75;;;22.41;49.43
80624;BME280;70269;44.768;9.600;2023-10-08T08:39:40;98272.56;;;22.48;50.55
80624;BME280;70269;44.768;9.600;2023-10-08T08:42:07;98269.81;;;22.48;50.43
80624;BME280;70269;44.768;9.600;2023-10-08T08:44:38;98265.47;;;22.68;50.61
80624;BME280;70269;44.768;9.600;2023-10-08T08:47:13;98262.81;;;22.83;50.19
80624;BME280;70269;44.768;9.600;2023-10-08T08:49:45;98265.31;;;22.89;50.10
80624;BME280;70269;44.768;9.600;2023-10-08T08:52:11;98259.22;;;23.03;49.15
80624;BME280;70269;44.768;9.600;2023-10-08T08:54:38;98262.28;;;23.01;49.32
80624;BME280;70269;44.768;9.600;2023-10-08T08:57:05;98263.66;;;23.29;49.22
80624;BME280;70269;44.768;9.600;2023-10-08T08:59:31;98260.38;;;23.37;49.67
80624;BME280;70269;44.768;9.600;2023-10-08T09:01:58;98249.66;;;23.51;49.10
80624;BME280;70269;44.768;9.600;2023-10-08T09:04:30;98253.78;;;23.63;48.40
80624;BME280;70269;44.768;9.600;2023-10-08T09:06:56;98256.25;;;23.70;49.11
80624;BME280;70269;44.768;9.600;2023-10-08T09:09:23;98258.41;;;23.83;47.64
80624;BME280;70269;44.768;9.600;2023-10-08T09:11:56;98250.63;;;24.05;47.13
80624;BME280;70269;44.768;9.600;2023-10-08T09:14:24;98259.44;;;24.12;46.62
80624;BME280;70269;44.768;9.600;2023-10-08T09:17:00;98253.13;;;24.07;46.16
80624;BME280;70269;44.768;9.600;2023-10-08T09:19:26;98248.97;;;24.04;47.31
80624;BME280;70269;44.768;9.600;2023-10-08T09:22:06;98248.38;;;24.17;47.03
80624;BME280;70269;44.768;9.600;2023-10-08T09:24:33;98251.13;;;24.28;46.13
80624;BME280;70269;44.768;9.600;2023-10-08T09:27:00;98246.41;;;24.33;46.63
80624;BME280;70269;44.768;9.600;2023-10-08T09:29:26;98245.34;;;24.29;45.64
80624;BME280;70269;44.768;9.600;2023-10-08T09:31:56;98242.81;;;24.33;45.33
80624;BME280;70269;44.768;9.600;2023-10-08T09:34:32;98247.00;;;24.30;45.17
80624;BME280;70269;44.768;9.600;2023-10-08T09:36:59;98239.47;;;24.41;45.73
80624;BME280;70269;44.768;9.600;2023-10-08T09:39:29;98244.19;;;24.40;45.58
80624;BME280;70269;44.768;9.600;2023-10-08T09:42:00;98234.53;;;24.38;45.17
80624;BME280;70269;44.768;9.600;2023-10-08T09:44:28;98224.22;;;24.53;45.77
80624;BME280;70269;44.768;9.600;2023-10-08T09:47:09;98233.91;;;24.56;43.67
80624;BME280;70269;44.768;9.600;2023-10-08T09:50:00;98230.81;;;24.63;43.96
80624;BME280;70269;44.768;9.600;2023-10-08T09:52:36;98224.03;;;24.89;43.95
80624;BME280;70269;44.768;9.600;2023-10-08T09:55:08;98225.91;;;24.98;42.53
80624;BME280;70269;44.768;9.600;2023-10-08T09:57:38;98228.38;;;25.00;42.82
80624;BME280;70269;44.768;9.600;2023-10-08T10:00:05;98220.97;;;24.95;42.42
80624;BME280;70269;44.768;9.600;2023-10-08T10:02:40;98230.25;;;25.10;42.12
80624;BME280;70269;44.768;9.600;2023-10-08T10:05:10;98225.78;;;25.14;41.71
80624;BME280;70269;44.768;9.600;2023-10-08T10:07:37;98231.28;;;25.19;42.18
80624;BME280;70269;44.768;9.600;2023-10-08T10:12:52;98219.66;;;25.51;41.65
80624;BME280;70269;44.768;9.600;2023-10-08T10:15:21;98223.09;;;25.71;40.70
80624;BME280;70269;44.768;9.600;2023-10-08T10:17:51;98222.09;;;26.57;38.93
80624;BME280;70269;44.768;9.600;2023-10-08T10:20:16;98220.69;;;26.97;37.42
80624;BME280;70269;44.768;9.600;2023-10-08T10:22:42;98214.75;;;26.85;36.66
80624;BME280;70269;44.768;9.600;2023-10-08T10:25:09;98210.03;;;26.86;33.80
80624;BME280;70269;44.768;9.600;2023-10-08T10:30:24;98208.22;;;27.51;31.53
80624;BME280;70269;44.768;9.600;2023-10-08T10:32:53;98203.03;;;27.77;26.36
80624;BME280;70269;44.768;9.600;2023-10-08T10:35:19;98196.00;;;27.80;27.19
80624;BME280;70269;44.768;9.600;2023-10-08T10:37:46;98194.91;;;27.94;30.11
80624;BME280;70269;44.768;9.600;2023-10-08T10:40:24;98194.81;;;28.13;27.12
80624;BME280;70269;44.768;9.600;2023-10-08T10:43:08;98189.75;;;28.56;26.94
80624;BME280;70269;44.768;9.600;2023-10-08T10:45:41;98186.31;;;28.59;26.60
80624;BME280;70269;44.768;9.600;2023-10-08T10:48:12;98191.16;;;28.67;25.83
80624;BME280;70269;44.768;9.600;2023-10-08T10:50:48;98178.91;;;28.82;23.49
80624;BME280;70269;44.768;9.600;2023-10-08T10:53:34;98183.94;;;28.66;23.96
80624;BME280;70269;44.768;9.600;2023-10-08T10:56:12;98182.47;;;28.82;25.23
80624;BME280;70269;44.768;9.600;2023-10-08T10:58:52;98171.81;;;28.76;24.61
80624;BME280;70269;44.768;9.600;2023-10-08T11:01:26;98173.69;;;28.89;24.39
80624;BME280;70269;44.768;9.600;2023-10-08T11:03:56;98166.31;;;28.71;23.61
80624;BME280;70269;44.768;9.600;2023-10-08T11:06:25;98168.56;;;28.82;22.77
80624;BME280;70269;44.768;9.600;2023-10-08T11:08:52;98168.22;;;28.98;23.31
80624;BME280;70269;44.768;9.600;2023-10-08T11:11:25;98165.88;;;28.91;23.79
80624;BME280;70269;44.768;9.600;2023-10-08T11:13:56;98163.91;;;28.91;24.58
80624;BME280;70269;44.768;9.600;2023-10-08T11:16:23;98149.31;;;29.08;24.38
80624;BME280;70269;44.768;9.600;2023-10-08T11:18:49;98152.19;;;28.94;24.95
80624;BME280;70269;44.768;9.600;2023-10-08T11:21:16;98149.13;;;29.05;24.79
80624;BME280;70269;44.768;9.600;2023-10-08T11:23:49;98146.41;;;29.13;24.30
80624;BME280;70269;44.768;9.600;2023-10-08T11:26:20;98143.75;;;29.08;22.81
80624;BME280;70269;44.768;9.600;2023-10-08T11:28:47;98142.19;;;29.16;22.67
80624;BME280;70269;44.768;9.600;2023-10-08T11:31:17;98138.91;;;28.91;22.88
80624;BME280;70269;44.768;9.600;2023-10-08T11:33:47;98132.66;;;28.72;23.31
80624;BME280;70269;44.768;9.600;2023-10-08T11:36:23;98131.81;;;29.08;25.43
80624;BME280;70269;44.768;9.600;2023-10-08T11:39:10;98133.59;;;28.81;23.55
80624;BME280;70269;44.768;9.600;2023-10-08T11:41:37;98126.91;;;28.69;24.18
80624;BME280;70269;44.768;9.600;2023-10-08T11:44:16;98127.16;;;28.94;24.52
80624;BME280;70269;44.768;9.600;2023-10-08T11:46:45;98120.69;;;29.08;23.63
80624;BME280;70269;44.768;9.600;2023-10-08T11:49:11;98122.22;;;28.91;22.80
80624;BME280;70269;44.768;9.600;2023-10-08T11:51:51;98117.47;;;28.92;24.35
80624;BME280;70269;44.768;9.600;2023-10-08T11:54:17;98114.56;;;29.19;24.94
80624;BME280;70269;44.768;9.600;2023-10-08T11:56:45;98113.47;;;29.29;23.94
80624;BME280;70269;44.768;9.600;2023-10-08T11:59:12;98115.91;;;29.53;22.81
80624;BME280;70269;44.768;9.600;2023-10-08T12:01:38;98110.88;;;29.63;23.03
80624;BME280;70269;44.768;9.600;2023-10-08T12:04:08;98106.88;;;29.47;23.38
80624;BME280;70269;44.768;9.600;2023-10-08T12:06:42;98093.53;;;29.13;24.18
80624;BME280;70269;44.768;9.600;2023-10-08T12:09:18;98091.09;;;29.12;23.88
80624;BME280;70269;44.768;9.600;2023-10-08T12:11:47;98091.34;;;29.24;25.10
80624;BME280;70269;44.768;9.600;2023-10-08T12:14:13;98099.81;;;29.19;22.30
80624;BME280;70269;44.768;9.600;2023-10-08T12:16:40;98087.84;;;28.87;22.82
80624;BME280;70269;44.768;9.600;2023-10-08T12:19:07;98088.03;;;28.91;25.02
80624;BME280;70269;44.768;9.600;2023-10-08T12:21:42;98080.88;;;28.76;23.51
80624;BME280;70269;44.768;9.600;2023-10-08T12:24:07;98085.09;;;28.51;26.05
80624;BME280;70269;44.768;9.600;2023-10-08T12:26:40;98072.78;;;28.30;24.57
80624;BME280;70269;44.768;9.600;2023-10-08T12:29:12;98077.88;;;28.73;23.45
80624;BME280;70269;44.768;9.600;2023-10-08T12:31:42;98071.81;;;28.48;24.18
80624;BME280;70269;44.768;9.600;2023-10-08T12:34:13;98071.81;;;28.71;25.28
80624;BME280;70269;44.768;9.600;2023-10-08T12:36:39;98061.34;;;28.68;24.21
80624;BME280;70269;44.768;9.600;2023-10-08T12:39:05;98063.06;;;28.77;23.43
80624;BME280;70269;44.768;9.600;2023-10-08T12:41:35;98070.50;;;28.68;23.83
80624;BME280;70269;44.768;9.600;2023-10-08T12:44:04;98064.63;;;28.70;23.00
80624;BME280;70269;44.768;9.600;2023-10-08T12:46:32;98059.78;;;28.75;25.23
80624;BME280;70269;44.768;9.600;2023-10-08T12:48:59;98060.94;;;28.61;23.54
80624;BME280;70269;44.768;9.600;2023-10-08T12:51:26;98054.72;;;28.77;23.18
80624;BME280;70269;44.768;9.600;2023-10-08T12:53:57;98055.72;;;29.04;22.25
80624;BME280;70269;44.768;9.600;2023-10-08T12:56:32;98057.06;;;29.06;22.78
80624;BME280;70269;44.768;9.600;2023-10-08T12:59:01;98050.84;;;29.09;24.00
80624;BME280;70269;44.768;9.600;2023-10-08T13:01:33;98053.69;;;28.95;22.51
80624;BME280;70269;44.768;9.600;2023-10-08T13:04:01;98043.91;;;28.98;22.25
80624;BME280;70269;44.768;9.600;2023-10-08T13:06:33;98057.72;;;29.12;22.04
80624;BME280;70269;44.768;9.600;2023-10-08T13:09:03;98053.81;;;28.90;21.88
80624;BME280;70269;44.768;9.600;2023-10-08T13:11:38;98047.41;;;28.81;21.94
80624;BME280;70269;44.768;9.600;2023-10-08T13:14:04;98040.44;;;28.92;22.04
80624;BME280;70269;44.768;9.600;2023-10-08T13:16:31;98041.94;;;28.99;21.50
80624;BME280;70269;44.768;9.600;2023-10-08T13:18:57;98033.97;;;29.06;22.64
80624;BME280;70269;44.768;9.600;2023-10-08T13:21:25;98034.75;;;28.98;21.29
80624;BME280;70269;44.768;9.600;2023-10-08T13:23:53;98033.47;;;29.04;20.43
80624;BME280;70269;44.768;9.600;2023-10-08T13:26:21;98034.56;;;28.94;21.67